sensor_id;sensor_type;location;lat;lon;timestamp;temperature;humidity
43627;DHT22;29217;52.586;13.442;2022-07-06T12:08:31;23.10;99.90
43627;DHT22;29217;52.586;13.442;2022-07-06T12:10:56;22.10;99.90
43627;DHT22;29217;52.586;13.442;2022-07-06T12:13:23;21.70;99.90
43627;DHT22;29217;52.586;13.442;2022-07-06T12:15:49;21.40;99.90
43627;DHT22;29217;52.586;13.442;2022-07-06T12:18:15;21.00;99.90
43627;DHT22;29217;52.586;13.442;2022-07-06T12:20:41;20.80;99.90
43627;DHT22;29217;52.586;13.442;2022-07-06T12:23:07;21.30;99.90
43627;DHT22;29217;52.586;13.442;2022-07-06T12:25:36;21.70;99.90
43627;DHT22;29217;52.586;13.442;2022-07-06T12:28:03;21.90;99.90
43627;DHT22;29217;52.586;13.442;2022-07-06T12:30:28;21.90;99.90
43627;DHT22;29217;52.586;13.442;2022-07-06T12:33:13;21.90;99.90
43627;DHT22;29217;52.586;13.442;2022-07-06T12:35:45;21.90;99.90
43627;DHT22;29217;52.586;13.442;2022-07-06T12:38:11;21.90;99.90
43627;DHT22;29217;52.586;13.442;2022-07-06T12:40:37;22.00;99.90
43627;DHT22;29217;52.586;13.442;2022-07-06T12:43:04;22.00;99.90
43627;DHT22;29217;52.586;13.442;2022-07-06T12:45:31;22.00;99.90
43627;DHT22;29217;52.586;13.442;2022-07-06T12:48:01;21.80;99.90
43627;DHT22;29217;52.586;13.442;2022-07-06T12:50:46;21.70;99.90
43627;DHT22;29217;52.586;13.442;2022-07-06T12:53:25;21.80;99.90
43627;DHT22;29217;52.586;13.442;2022-07-06T12:56:10;21.70;99.90
43627;DHT22;29217;52.586;13.442;2022-07-06T12:58:36;21.70;99.90
43627;DHT22;29217;52.586;13.442;2022-07-06T13:01:02;21.60;99.90
43627;DHT22;29217;52.586;13.442;2022-07-06T13:03:27;21.60;99.90
43627;DHT22;29217;52.586;13.442;2022-07-06T13:05:53;21.30;99.90
43627;DHT22;29217;52.586;13.442;2022-07-06T13:08:18;21.10;99.90
43627;DHT22;29217;52.586;13.442;2022-07-06T13:10:44;21.00;99.90
43627;DHT22;29217;52.586;13.442;2022-07-06T13:13:10;20.90;99.90
43627;DHT22;29217;52.586;13.442;2022-07-06T13:15:36;21.00;99.90
43627;DHT22;29217;52.586;13.442;2022-07-06T13:18:01;21.10;99.90
43627;DHT22;29217;52.586;13.442;2022-07-06T13:20:27;21.10;99.90
43627;DHT22;29217;52.586;13.442;2022-07-06T13:22:53;21.30;99.90
43627;DHT22;29217;52.586;13.442;2022-07-06T13:25:19;21.30;99.90
43627;DHT22;29217;52.586;13.442;2022-07-06T13:27:44;21.60;99.90
43627;DHT22;29217;52.586;13.442;2022-07-06T13:30:10;21.60;99.90
43627;DHT22;29217;52.586;13.442;2022-07-06T13:32:36;21.60;99.90
43627;DHT22;29217;52.586;13.442;2022-07-06T13:35:02;21.50;99.90
43627;DHT22;29217;52.586;13.442;2022-07-06T13:37:28;21.50;99.90
43627;DHT22;29217;52.586;13.442;2022-07-06T13:39:53;21.30;99.90
43627;DHT22;29217;52.586;13.442;2022-07-06T13:42:19;21.20;99.90
43627;DHT22;29217;52.586;13.442;2022-07-06T13:44:44;21.00;99.90
43627;DHT22;29217;52.586;13.442;2022-07-06T13:47:10;20.90;99.90
43627;DHT22;29217;52.586;13.442;2022-07-06T13:49:36;20.80;99.90
43627;DHT22;29217;52.586;13.442;2022-07-06T13:52:02;20.90;99.90
43627;DHT22;29217;52.586;13.442;2022-07-06T13:54:29;21.10;99.90
43627;DHT22;29217;52.586;13.442;2022-07-06T13:56:55;21.60;99.90
43627;DHT22;29217;52.586;13.442;2022-07-06T13:59:20;22.10;99.90
43627;DHT22;29217;52.586;13.442;2022-07-06T14:01:46;22.10;99.90
43627;DHT22;29217;52.586;13.442;2022-07-06T14:04:12;22.40;99.90
43627;DHT22;29217;52.586;13.442;2022-07-06T14:06:37;22.40;99.90
43627;DHT22;29217;52.586;13.442;2022-07-06T14:09:03;22.30;99.90
43627;DHT22;29217;52.586;13.442;2022-07-06T14:11:28;22.30;99.90
43627;DHT22;29217;52.586;13.442;2022-07-06T14:13:54;22.30;99.90
43627;DHT22;29217;52.586;13.442;2022-07-06T14:16:19;22.60;99.90
43627;DHT22;29217;52.586;13.442;2022-07-06T14:18:45;22.50;99.90
43627;DHT22;29217;52.586;13.442;2022-07-06T14:21:10;22.40;99.90
43627;DHT22;29217;52.586;13.442;2022-07-06T14:23:36;22.10;99.90
43627;DHT22;29217;52.586;13.442;2022-07-06T14:26:02;21.70;99.90
43627;DHT22;29217;52.586;13.442;2022-07-06T14:28:27;21.90;99.90
43627;DHT22;29217;52.586;13.442;2022-07-06T14:30:53;22.10;99.90
43627;DHT22;29217;52.586;13.442;2022-07-06T14:33:19;22.20;99.90
43627;DHT22;29217;52.586;13.442;2022-07-06T14:35:47;22.10;99.90
43627;DHT22;29217;52.586;13.442;2022-07-06T14:38:17;22.00;99.90
43627;DHT22;29217;52.586;13.442;2022-07-06T14:40:43;22.00;99.90
43627;DHT22;29217;52.586;13.442;2022-07-06T14:43:09;21.80;99.90
43627;DHT22;29217;52.586;13.442;2022-07-06T14:45:35;21.60;99.90
43627;DHT22;29217;52.586;13.442;2022-07-06T14:48:01;21.50;99.90
43627;DHT22;29217;52.586;13.442;2022-07-06T14:50:27;21.40;99.90
43627;DHT22;29217;52.586;13.442;2022-07-06T14:52:53;21.30;99.90
43627;DHT22;29217;52.586;13.442;2022-07-06T14:55:19;21.10;99.90
43627;DHT22;29217;52.586;13.442;2022-07-06T14:57:44;20.90;99.90
43627;DHT22;29217;52.586;13.442;2022-07-06T15:00:10;20.80;99.90
43627;DHT22;29217;52.586;13.442;2022-07-06T15:02:36;20.70;99.90
43627;DHT22;29217;52.586;13.442;2022-07-06T15:05:03;20.60;99.90
43627;DHT22;29217;52.586;13.442;2022-07-06T15:07:28;20.40;99.90
43627;DHT22;29217;52.586;13.442;2022-07-06T15:09:55;20.40;99.90
43627;DHT22;29217;52.586;13.442;2022-07-06T15:12:21;20.30;99.90
43627;DHT22;29217;52.586;13.442;2022-07-06T19:33:00;20.10;99.90
43627;DHT22;29217;52.586;13.442;2022-07-06T19:35:27;18.20;99.90
43627;DHT22;29217;52.586;13.442;2022-07-06T19:37:53;18.10;99.90
43627;DHT22;29217;52.586;13.442;2022-07-06T19:40:18;18.00;99.90
43627;DHT22;29217;52.586;13.442;2022-07-06T19:42:44;17.90;99.90
43627;DHT22;29217;52.586;13.442;2022-07-06T19:45:09;17.80;99.90
43627;DHT22;29217;52.586;13.442;2022-07-06T19:47:35;17.70;99.90
43627;DHT22;29217;52.586;13.442;2022-07-06T19:50:01;17.50;99.90
43627;DHT22;29217;52.586;13.442;2022-07-06T19:52:27;17.30;99.90
43627;DHT22;29217;52.586;13.442;2022-07-06T19:54:52;17.30;99.90
43627;DHT22;29217;52.586;13.442;2022-07-06T19:57:18;17.10;99.90
43627;DHT22;29217;52.586;13.442;2022-07-06T19:59:43;17.00;99.90
43627;DHT22;29217;52.586;13.442;2022-07-06T20:02:09;16.90;99.90
43627;DHT22;29217;52.586;13.442;2022-07-06T20:04:34;16.70;99.90
43627;DHT22;29217;52.586;13.442;2022-07-06T20:07:00;16.70;99.90
43627;DHT22;29217;52.586;13.442;2022-07-06T20:09:25;16.60;99.90
43627;DHT22;29217;52.586;13.442;2022-07-06T20:11:51;16.60;99.90
43627;DHT22;29217;52.586;13.442;2022-07-06T20:14:17;16.50;99.90
43627;DHT22;29217;52.586;13.442;2022-07-06T20:16:42;16.40;99.90
43627;DHT22;29217;52.586;13.442;2022-07-06T20:19:08;16.40;99.90
43627;DHT22;29217;52.586;13.442;2022-07-06T20:21:33;16.40;99.90
43627;DHT22;29217;52.586;13.442;2022-07-06T20:23:59;16.30;99.90
43627;DHT22;29217;52.586;13.442;2022-07-06T20:26:24;16.30;99.90
43627;DHT22;29217;52.586;13.442;2022-07-06T20:28:50;16.20;99.90
43627;DHT22;29217;52.586;13.442;2022-07-06T20:31:15;16.20;99.90
43627;DHT22;29217;52.586;13.442;2022-07-06T20:33:41;16.10;99.90
43627;DHT22;29217;52.586;13.442;2022-07-06T20:36:08;16.00;99.90
43627;DHT22;29217;52.586;13.442;2022-07-06T20:38:34;15.90;99.90
43627;DHT22;29217;52.586;13.442;2022-07-06T20:41:00;15.80;99.90
43627;DHT22;29217;52.586;13.442;2022-07-06T20:43:26;15.70;99.90
43627;DHT22;29217;52.586;13.442;2022-07-06T20:45:51;15.60;99.90
43627;DHT22;29217;52.586;13.442;2022-07-06T20:48:17;15.50;99.90
43627;DHT22;29217;52.586;13.442;2022-07-06T20:50:42;15.50;99.90
43627;DHT22;29217;52.586;13.442;2022-07-06T20:53:08;15.40;99.90
43627;DHT22;29217;52.586;13.442;2022-07-06T20:55:33;15.30;99.90
43627;DHT22;29217;52.586;13.442;2022-07-06T20:57:59;15.30;99.90
43627;DHT22;29217;52.586;13.442;2022-07-06T21:00:25;15.20;99.90
43627;DHT22;29217;52.586;13.442;2022-07-06T21:02:50;15.10;99.90
43627;DHT22;29217;52.586;13.442;2022-07-06T21:05:16;15.00;99.90
43627;DHT22;29217;52.586;13.442;2022-07-06T21:07:42;15.00;99.90
43627;DHT22;29217;52.586;13.442;2022-07-06T21:10:08;14.90;99.90
43627;DHT22;29217;52.586;13.442;2022-07-06T21:12:34;14.80;99.90
43627;DHT22;29217;52.586;13.442;2022-07-06T21:14:59;14.80;99.90
43627;DHT22;29217;52.586;13.442;2022-07-06T21:17:25;14.70;99.90
43627;DHT22;29217;52.586;13.442;2022-07-06T21:19:51;14.60;99.90
43627;DHT22;29217;52.586;13.442;2022-07-06T21:22:17;14.60;99.90
43627;DHT22;29217;52.586;13.442;2022-07-06T21:24:43;14.50;99.90
43627;DHT22;29217;52.586;13.442;2022-07-06T21:27:08;14.40;99.90
43627;DHT22;29217;52.586;13.442;2022-07-06T21:29:34;14.40;99.90
43627;DHT22;29217;52.586;13.442;2022-07-06T21:31:59;14.40;99.90
43627;DHT22;29217;52.586;13.442;2022-07-06T21:34:29;14.30;99.90
43627;DHT22;29217;52.586;13.442;2022-07-06T21:36:56;14.30;99.90
43627;DHT22;29217;52.586;13.442;2022-07-06T21:39:22;14.20;99.90
43627;DHT22;29217;52.586;13.442;2022-07-06T21:41:48;14.20;99.90
43627;DHT22;29217;52.586;13.442;2022-07-06T21:44:14;14.10;99.90
43627;DHT22;29217;52.586;13.442;2022-07-06T21:46:40;14.10;99.90
43627;DHT22;29217;52.586;13.442;2022-07-06T21:49:05;14.00;99.90
43627;DHT22;29217;52.586;13.442;2022-07-06T21:51:31;14.00;99.90
43627;DHT22;29217;52.586;13.442;2022-07-06T21:53:56;14.00;99.90
43627;DHT22;29217;52.586;13.442;2022-07-06T21:56:22;13.80;99.90
43627;DHT22;29217;52.586;13.442;2022-07-06T21:58:47;13.80;99.90
43627;DHT22;29217;52.586;13.442;2022-07-06T22:01:13;13.80;99.90
43627;DHT22;29217;52.586;13.442;2022-07-06T22:03:40;13.60;99.90
43627;DHT22;29217;52.586;13.442;2022-07-06T22:06:05;13.60;99.90
43627;DHT22;29217;52.586;13.442;2022-07-06T22:08:31;13.60;99.90
43627;DHT22;29217;52.586;13.442;2022-07-06T22:10:57;13.50;99.90
43627;DHT22;29217;52.586;13.442;2022-07-06T22:13:22;13.50;99.90
43627;DHT22;29217;52.586;13.442;2022-07-06T22:16:07;13.50;99.90
43627;DHT22;29217;52.586;13.442;2022-07-06T22:18:34;13.50;99.90
43627;DHT22;29217;52.586;13.442;2022-07-06T22:20:59;13.40;99.90
43627;DHT22;29217;52.586;13.442;2022-07-06T22:23:25;13.30;99.90
43627;DHT22;29217;52.586;13.442;2022-07-06T22:25:50;13.30;99.90
43627;DHT22;29217;52.586;13.442;2022-07-06T22:28:16;13.20;99.90
43627;DHT22;29217;52.586;13.442;2022-07-06T22:30:42;13.20;99.90
43627;DHT22;29217;52.586;13.442;2022-07-06T22:33:07;13.20;99.90
43627;DHT22;29217;52.586;13.442;2022-07-06T22:35:33;13.20;99.90
43627;DHT22;29217;52.586;13.442;2022-07-06T22:37:58;13.10;99.90
43627;DHT22;29217;52.586;13.442;2022-07-06T22:40:24;13.10;99.90
43627;DHT22;29217;52.586;13.442;2022-07-06T22:43:08;13.00;99.90
43627;DHT22;29217;52.586;13.442;2022-07-06T22:45:33;13.10;99.90
43627;DHT22;29217;52.586;13.442;2022-07-06T22:47:59;13.00;99.90
43627;DHT22;29217;52.586;13.442;2022-07-06T22:50:24;13.10;99.90
43627;DHT22;29217;52.586;13.442;2022-07-06T22:52:50;13.10;99.90
43627;DHT22;29217;52.586;13.442;2022-07-06T22:55:15;13.10;99.90
43627;DHT22;29217;52.586;13.442;2022-07-06T22:57:41;13.20;99.90
43627;DHT22;29217;52.586;13.442;2022-07-06T23:00:07;13.20;99.90
43627;DHT22;29217;52.586;13.442;2022-07-06T23:02:33;13.20;99.90
43627;DHT22;29217;52.586;13.442;2022-07-06T23:04:58;13.20;99.90
43627;DHT22;29217;52.586;13.442;2022-07-06T23:07:24;13.20;99.90
43627;DHT22;29217;52.586;13.442;2022-07-06T23:09:49;13.20;99.90
43627;DHT22;29217;52.586;13.442;2022-07-06T23:12:15;13.20;99.90
43627;DHT22;29217;52.586;13.442;2022-07-06T23:14:40;13.20;99.90
43627;DHT22;29217;52.586;13.442;2022-07-06T23:17:06;13.20;99.90
43627;DHT22;29217;52.586;13.442;2022-07-06T23:19:32;13.20;99.90
43627;DHT22;29217;52.586;13.442;2022-07-06T23:22:00;13.20;99.90
43627;DHT22;29217;52.586;13.442;2022-07-06T23:24:26;13.20;99.90
43627;DHT22;29217;52.586;13.442;2022-07-06T23:26:51;13.20;99.90
43627;DHT22;29217;52.586;13.442;2022-07-06T23:29:17;13.20;99.90
43627;DHT22;29217;52.586;13.442;2022-07-06T23:31:42;13.20;99.90
43627;DHT22;29217;52.586;13.442;2022-07-06T23:34:08;13.20;99.90
43627;DHT22;29217;52.586;13.442;2022-07-06T23:36:33;13.30;99.90
43627;DHT22;29217;52.586;13.442;2022-07-06T23:38:59;13.40;99.90
43627;DHT22;29217;52.586;13.442;2022-07-06T23:41:25;13.60;99.90
43627;DHT22;29217;52.586;13.442;2022-07-06T23:43:50;13.90;99.90
43627;DHT22;29217;52.586;13.442;2022-07-06T23:46:16;14.20;99.90
43627;DHT22;29217;52.586;13.442;2022-07-06T23:48:41;14.50;99.90
43627;DHT22;29217;52.586;13.442;2022-07-06T23:51:07;14.70;99.90
43627;DHT22;29217;52.586;13.442;2022-07-06T23:53:33;14.90;99.90
43627;DHT22;29217;52.586;13.442;2022-07-06T23:55:58;15.10;99.90
43627;DHT22;29217;52.586;13.442;2022-07-06T23:58:24;15.20;99.90
